createdAt,value
2017-05-02T00:00:08.351Z,8.11
2017-05-02T00:00:48.881Z,8.1
2017-05-02T00:01:29.391Z,8.11
2017-05-02T00:02:09.906Z,8.18
2017-05-02T00:02:50.427Z,8.11
2017-05-02T00:03:30.952Z,8.12
2017-05-02T00:04:11.477Z,8.01
2017-05-02T00:04:51.999Z,8.04
2017-05-02T00:05:32.502Z,8.01
2017-05-02T00:06:13.013Z,8.05
2017-05-02T00:06:53.534Z,7.98
2017-05-02T00:07:34.054Z,7.95
2017-05-02T00:08:14.575Z,7.98
2017-05-02T00:08:55.102Z,7.98
2017-05-02T00:09:35.643Z,7.93
2017-05-02T00:10:16.176Z,7.9
2017-05-02T00:10:56.690Z,7.95
2017-05-02T00:11:37.216Z,7.98
2017-05-02T00:12:17.745Z,7.95
2017-05-02T00:12:58.258Z,7.98
2017-05-02T00:13:38.782Z,7.89
2017-05-02T00:14:19.313Z,7.97
2017-05-02T00:14:59.829Z,7.87
2017-05-02T00:15:40.339Z,7.9
2017-05-02T00:16:20.862Z,7.98
2017-05-02T00:17:01.393Z,7.95
2017-05-02T00:17:41.926Z,7.93
2017-05-02T00:18:22.444Z,7.87
2017-05-02T00:19:02.964Z,7.85
2017-05-02T00:19:43.509Z,7.86
2017-05-02T00:20:24.004Z,7.83
2017-05-02T00:21:04.518Z,7.85
2017-05-02T00:21:45.038Z,7.86
2017-05-02T00:22:25.545Z,7.83
2017-05-02T00:23:06.093Z,7.89
2017-05-02T00:23:46.609Z,7.83
2017-05-02T00:24:27.149Z,7.75
2017-05-02T00:25:07.671Z,7.86
2017-05-02T00:25:48.207Z,7.82
2017-05-02T00:26:28.726Z,7.9
2017-05-02T00:27:09.227Z,7.83
2017-05-02T00:27:49.743Z,7.82
2017-05-02T00:28:30.261Z,7.77
2017-05-02T00:29:10.773Z,7.75
2017-05-02T00:29:51.294Z,7.77
2017-05-02T00:30:31.824Z,7.8
2017-05-02T00:31:12.343Z,7.85
2017-05-02T00:31:52.849Z,7.77
2017-05-02T00:32:33.363Z,7.8
2017-05-02T00:33:13.881Z,7.77
2017-05-02T00:33:54.397Z,7.77
2017-05-02T00:34:34.915Z,7.75
2017-05-02T00:35:15.442Z,7.8
2017-05-02T00:35:55.945Z,7.77
2017-05-02T00:36:36.473Z,7.79
2017-05-02T00:37:17.012Z,7.74
2017-05-02T00:37:57.584Z,7.82
2017-05-02T00:38:38.104Z,7.74
2017-05-02T00:39:18.635Z,7.79
2017-05-02T00:39:59.140Z,7.8
2017-05-02T00:40:39.650Z,7.77
2017-05-02T00:41:20.157Z,7.77
2017-05-02T00:42:00.688Z,7.74
2017-05-02T00:42:41.230Z,7.8
2017-05-02T00:43:21.760Z,7.79
2017-05-02T00:44:02.280Z,7.77
2017-05-02T00:44:42.791Z,7.74
2017-05-02T00:45:23.318Z,7.75
2017-05-02T00:46:03.843Z,7.74
2017-05-02T00:46:44.360Z,7.74
2017-05-02T00:47:24.880Z,7.72
2017-05-02T00:48:05.420Z,7.79
2017-05-02T00:48:45.934Z,7.75
2017-05-02T00:49:26.449Z,7.77
2017-05-02T00:50:06.978Z,7.74
2017-05-02T00:50:47.508Z,7.8
2017-05-02T00:51:28.016Z,7.75
2017-05-02T00:52:08.530Z,7.77
2017-05-02T00:52:49.040Z,7.82
2017-05-02T00:53:29.553Z,7.82
2017-05-02T00:54:10.089Z,7.83
2017-05-02T00:54:50.605Z,7.79
2017-05-02T00:55:31.124Z,7.79
2017-05-02T00:56:11.643Z,7.82
2017-05-02T00:56:52.168Z,7.85
2017-05-02T00:57:32.698Z,7.77
2017-05-02T00:58:13.211Z,7.85
2017-05-02T00:58:53.813Z,7.87
2017-05-02T00:59:34.336Z,7.86
2017-05-02T01:00:14.874Z,7.87
2017-05-02T01:00:55.398Z,7.9
2017-05-02T01:01:35.917Z,7.86
2017-05-02T01:02:16.452Z,7.85
2017-05-02T01:02:56.959Z,7.89
2017-05-02T01:03:37.496Z,7.9
2017-05-02T01:04:18.027Z,7.95
2017-05-02T01:04:58.563Z,7.87
2017-05-02T01:05:39.077Z,7.92
2017-05-02T01:06:19.588Z,7.95
2017-05-02T01:07:00.123Z,7.95
2017-05-02T01:07:40.644Z,7.93
2017-05-02T01:08:21.161Z,7.95
2017-05-02T01:09:01.677Z,7.95
2017-05-02T01:09:42.194Z,7.92
2017-05-02T01:10:22.708Z,8
2017-05-02T01:11:03.216Z,7.95
2017-05-02T01:11:43.729Z,7.87
2017-05-02T01:12:24.259Z,7.93
2017-05-02T01:13:04.785Z,7.9
2017-05-02T01:13:45.315Z,7.92
2017-05-02T01:14:25.816Z,7.89
2017-05-02T01:15:06.348Z,7.89
2017-05-02T01:15:46.877Z,7.89
2017-05-02T01:16:27.402Z,7.98
2017-05-02T01:17:07.912Z,7.9
2017-05-02T01:17:48.436Z,7.92
2017-05-02T01:18:28.965Z,7.92
2017-05-02T01:19:09.500Z,8.07
2017-05-02T01:19:50.034Z,7.95
2017-05-02T01:20:30.559Z,7.86
2017-05-02T01:21:11.079Z,7.95
2017-05-02T01:21:51.617Z,7.95
2017-05-02T01:22:32.137Z,7.9
2017-05-02T01:23:12.662Z,7.92
2017-05-02T01:23:53.184Z,7.95
2017-05-02T01:24:33.701Z,7.95
2017-05-02T01:25:14.231Z,7.95
2017-05-02T01:25:54.747Z,8.04
2017-05-02T01:26:35.281Z,7.98
2017-05-02T01:27:15.831Z,7.89
2017-05-02T01:27:56.345Z,7.93
2017-05-02T01:28:36.864Z,7.95
2017-05-02T01:29:17.396Z,7.93
2017-05-02T01:29:57.932Z,7.97
2017-05-02T01:30:38.456Z,8.01
2017-05-02T01:31:18.974Z,7.98
2017-05-02T01:31:59.508Z,7.95
2017-05-02T01:32:40.023Z,7.95
2017-05-02T01:33:20.566Z,7.97
2017-05-02T01:34:01.096Z,7.97
2017-05-02T01:34:41.621Z,7.98
2017-05-02T01:35:22.144Z,7.98
2017-05-02T01:36:02.676Z,8.05
2017-05-02T01:36:43.206Z,7.95
2017-05-02T01:37:23.729Z,7.98
2017-05-02T01:38:04.246Z,7.98
2017-05-02T01:38:44.757Z,7.93
2017-05-02T01:39:25.278Z,8.02
2017-05-02T01:40:05.784Z,7.93
2017-05-02T01:40:46.274Z,7.98
2017-05-02T01:41:26.804Z,7.97
2017-05-02T01:42:07.321Z,7.97
2017-05-02T01:42:47.867Z,7.98
2017-05-02T01:43:28.377Z,7.93
2017-05-02T01:44:08.910Z,8.02
2017-05-02T01:44:49.448Z,7.98
2017-05-02T01:45:29.968Z,7.95
2017-05-02T01:46:10.484Z,8.02
2017-05-02T01:46:51.013Z,7.93
2017-05-02T01:47:31.544Z,7.98
2017-05-02T01:48:12.058Z,8.02
2017-05-02T01:48:52.589Z,7.93
2017-05-02T01:49:33.144Z,7.98
2017-05-02T01:50:13.675Z,8.01
2017-05-02T01:50:54.200Z,7.93
2017-05-02T01:51:34.736Z,7.95
2017-05-02T01:52:15.255Z,7.95
2017-05-02T01:52:55.766Z,7.97
2017-05-02T01:53:36.281Z,7.95
2017-05-02T01:54:16.807Z,8.02
2017-05-02T01:54:57.316Z,7.98
2017-05-02T01:55:37.833Z,8.04
2017-05-02T01:56:18.364Z,8
2017-05-02T01:56:58.896Z,8.02
2017-05-02T01:57:39.396Z,7.95
2017-05-02T01:58:19.928Z,8.05
2017-05-02T01:59:00.459Z,8.05
2017-05-02T01:59:40.987Z,8.07
2017-05-02T02:00:21.480Z,8.07
2017-05-02T02:01:01.995Z,8.05
2017-05-02T02:01:42.508Z,8.07
2017-05-02T02:02:23.030Z,7.97
2017-05-02T02:03:03.561Z,8.01
2017-05-02T02:03:44.075Z,8.04
2017-05-02T02:04:24.590Z,8.02
2017-05-02T02:05:05.125Z,8.01
2017-05-02T02:05:45.658Z,8.1
2017-05-02T02:06:26.181Z,8.11
2017-05-02T02:07:06.729Z,8.11
2017-05-02T02:07:47.257Z,8.15
2017-05-02T02:08:27.785Z,8.04
2017-05-02T02:09:08.301Z,8.04
2017-05-02T02:09:48.828Z,8.15
2017-05-02T02:10:29.355Z,8.1
2017-05-02T02:11:09.882Z,8.12
2017-05-02T02:11:50.420Z,8.15
2017-05-02T02:12:30.946Z,8.08
2017-05-02T02:13:11.479Z,8.08
2017-05-02T02:13:52.012Z,8.08
2017-05-02T02:14:32.541Z,8.1
2017-05-02T02:15:13.059Z,8.04
2017-05-02T02:15:53.570Z,8.12
2017-05-02T02:16:34.110Z,8.05
2017-05-02T02:17:14.643Z,8.19
2017-05-02T02:17:55.172Z,8.08
2017-05-02T02:18:35.696Z,8.05
2017-05-02T02:19:16.210Z,8.1
2017-05-02T02:19:56.758Z,8.11
2017-05-02T02:20:37.247Z,8.11
2017-05-02T02:21:17.761Z,8.11
2017-05-02T02:21:58.285Z,8.07
2017-05-02T02:22:38.804Z,8.08
2017-05-02T02:23:19.323Z,8.15
2017-05-02T02:23:59.842Z,8.08
2017-05-02T02:24:40.389Z,8.08
2017-05-02T02:25:20.889Z,8.16
2017-05-02T02:26:01.414Z,8.23
2017-05-02T02:26:41.916Z,8.1
2017-05-02T02:27:22.438Z,8.08
2017-05-02T02:28:02.963Z,8.11
2017-05-02T02:28:43.491Z,8.1
2017-05-02T02:29:24.007Z,8.11
2017-05-02T02:30:04.516Z,8.18
2017-05-02T02:30:45.049Z,8.11
2017-05-02T02:31:25.575Z,8.15
2017-05-02T02:32:06.094Z,8.1
2017-05-02T02:32:46.610Z,8.23
2017-05-02T02:33:27.120Z,8.12
2017-05-02T02:34:07.642Z,8.1
2017-05-02T02:34:48.177Z,8.25
2017-05-02T02:35:28.700Z,8.08
2017-05-02T02:36:09.228Z,8.07
2017-05-02T02:36:49.747Z,8.1
2017-05-02T02:37:30.273Z,8.1
2017-05-02T02:38:10.790Z,8.1
2017-05-02T02:38:51.303Z,8.15
2017-05-02T02:39:31.859Z,8.11
2017-05-02T02:40:12.367Z,8.08
2017-05-02T02:40:52.880Z,8.1
2017-05-02T02:41:33.389Z,8.08
2017-05-02T02:42:13.908Z,8.08
2017-05-02T02:42:54.438Z,8.08
2017-05-02T02:43:34.967Z,8.11
2017-05-02T02:44:15.482Z,8.22
2017-05-02T02:44:56.051Z,8.11
2017-05-02T02:45:36.557Z,8.05
2017-05-02T02:46:17.091Z,8.07
2017-05-02T02:46:57.646Z,8.11
2017-05-02T02:47:38.198Z,8.08
2017-05-02T02:48:18.713Z,8.12
2017-05-02T02:48:59.222Z,8.08
2017-05-02T02:49:39.763Z,8.22
2017-05-02T02:50:20.286Z,8.07
2017-05-02T02:51:00.817Z,8.05
2017-05-02T02:51:41.321Z,8.16
2017-05-02T02:52:21.825Z,8.12
2017-05-02T02:53:02.359Z,8.12
2017-05-02T02:53:42.885Z,8.07
2017-05-02T02:54:23.411Z,8.1
2017-05-02T02:55:03.986Z,8.15
2017-05-02T02:55:44.466Z,8.11
2017-05-02T02:56:24.996Z,8.11
2017-05-02T02:57:05.524Z,8.05
2017-05-02T02:57:46.058Z,8.08
2017-05-02T02:58:26.576Z,8.11
2017-05-02T02:59:07.098Z,8.12
2017-05-02T02:59:47.630Z,8.16
2017-05-02T03:00:28.164Z,8.1
2017-05-02T03:01:08.693Z,8.15
2017-05-02T03:01:49.300Z,8.1
2017-05-02T03:02:29.821Z,8.1
2017-05-02T03:03:10.311Z,8.08
2017-05-02T03:03:50.839Z,8.1
2017-05-02T03:04:31.362Z,8.12
2017-05-02T03:05:11.877Z,8.1
2017-05-02T03:05:52.394Z,8.11
2017-05-02T03:06:32.931Z,8.12
2017-05-02T03:07:13.446Z,8.18
2017-05-02T03:07:53.978Z,8.16
2017-05-02T03:08:34.492Z,8.11
2017-05-02T03:09:15.029Z,8.1
2017-05-02T03:09:55.557Z,8.23
2017-05-02T03:10:36.093Z,8.08
2017-05-02T03:11:16.607Z,8.15
2017-05-02T03:11:57.138Z,8.15
2017-05-02T03:12:37.654Z,8.22
2017-05-02T03:13:18.196Z,8.12
2017-05-02T03:13:58.720Z,8.18
2017-05-02T03:14:39.234Z,8.12
2017-05-02T03:15:19.745Z,8.15
2017-05-02T03:16:00.293Z,8.12
2017-05-02T03:16:40.817Z,8.12
2017-05-02T03:17:21.318Z,8.08
2017-05-02T03:18:01.849Z,8.12
2017-05-02T03:18:42.378Z,8.05
2017-05-02T03:19:22.888Z,8.11
2017-05-02T03:20:03.422Z,8.23
2017-05-02T03:20:43.928Z,8.11
2017-05-02T03:21:24.445Z,8.18
2017-05-02T03:22:04.995Z,8.16
2017-05-02T03:22:45.525Z,8.15
2017-05-02T03:23:26.053Z,8.19
2017-05-02T03:24:06.562Z,8.25
2017-05-02T03:24:47.097Z,8.11
2017-05-02T03:25:27.716Z,8.19
2017-05-02T03:26:08.197Z,8.22
2017-05-02T03:26:48.729Z,8.15
2017-05-02T03:27:29.242Z,8.18
2017-05-02T03:28:09.769Z,8.22
2017-05-02T03:28:50.276Z,8.2
2017-05-02T03:29:30.798Z,8.25
2017-05-02T03:30:11.314Z,8.25
2017-05-02T03:30:51.828Z,8.2
2017-05-02T03:31:32.366Z,8.15
2017-05-02T03:32:12.881Z,8.23
2017-05-02T03:32:53.437Z,8.15
2017-05-02T03:33:33.967Z,8.15
2017-05-02T03:34:14.503Z,8.22
2017-05-02T03:34:55.038Z,8.15
2017-05-02T03:35:35.571Z,8.11
2017-05-02T03:36:16.068Z,8.22
2017-05-02T03:36:56.586Z,8.12
2017-05-02T03:37:37.097Z,8.18
2017-05-02T03:38:17.619Z,8.18
2017-05-02T03:38:58.124Z,8.25
2017-05-02T03:39:38.637Z,8.18
2017-05-02T03:40:19.150Z,8.18
2017-05-02T03:40:59.685Z,8.23
2017-05-02T03:41:40.221Z,8.2
2017-05-02T03:42:20.744Z,8.19
2017-05-02T03:43:01.244Z,8.16
2017-05-02T03:43:41.761Z,8.19
2017-05-02T03:44:22.302Z,8.15
2017-05-02T03:45:02.798Z,8.19
2017-05-02T03:45:43.286Z,8.22
2017-05-02T03:46:23.815Z,8.23
2017-05-02T03:47:04.344Z,8.22
2017-05-02T03:47:44.857Z,8.25
2017-05-02T03:48:25.393Z,8.29
2017-05-02T03:49:06.041Z,8.25
2017-05-02T03:49:46.610Z,8.28
2017-05-02T03:50:27.190Z,8.28
2017-05-02T03:51:07.702Z,8.33
2017-05-02T03:51:48.224Z,8.28
2017-05-02T03:52:28.750Z,8.26
2017-05-02T03:53:09.248Z,8.28
2017-05-02T03:53:49.787Z,8.29
2017-05-02T03:54:30.326Z,8.23
2017-05-02T03:55:10.851Z,8.3
2017-05-02T03:55:51.371Z,8.29
2017-05-02T03:56:31.887Z,8.33
2017-05-02T03:57:12.416Z,8.28
2017-05-02T03:57:52.992Z,8.33
2017-05-02T03:58:33.527Z,8.33
2017-05-02T03:59:14.049Z,8.29
2017-05-02T03:59:55.458Z,8.3
2017-05-02T04:00:35.984Z,8.38
2017-05-02T04:01:16.551Z,8.28
2017-05-02T04:01:57.067Z,8.4
2017-05-02T04:02:37.600Z,8.34
2017-05-02T04:03:18.112Z,8.41
2017-05-02T04:03:58.639Z,8.36
2017-05-02T04:04:39.186Z,8.41
2017-05-02T04:05:19.698Z,8.48
2017-05-02T04:06:00.335Z,8.43
2017-05-02T04:06:40.845Z,8.45
2017-05-02T04:07:21.335Z,8.44
2017-05-02T04:08:01.858Z,8.44
2017-05-02T04:08:42.368Z,8.52
2017-05-02T04:09:22.867Z,8.48
2017-05-02T04:10:03.365Z,8.53
2017-05-02T04:10:43.864Z,8.5
2017-05-02T04:11:24.386Z,8.52
2017-05-02T04:12:04.908Z,8.5
2017-05-02T04:12:45.413Z,8.52
2017-05-02T04:13:25.937Z,8.5
2017-05-02T04:14:06.473Z,8.53
2017-05-02T04:14:46.979Z,8.58
2017-05-02T04:15:27.496Z,8.58
2017-05-02T04:16:08.016Z,8.56
2017-05-02T04:16:48.505Z,8.5
2017-05-02T04:17:29.011Z,8.53
2017-05-02T04:18:09.527Z,8.5
2017-05-02T04:18:50.045Z,8.58
2017-05-02T04:19:31.149Z,8.52
2017-05-02T04:20:11.682Z,8.5
2017-05-02T04:20:52.207Z,8.55
2017-05-02T04:21:32.727Z,8.48
2017-05-02T04:22:13.230Z,8.55
2017-05-02T04:22:53.760Z,8.48
2017-05-02T04:23:34.274Z,8.55
2017-05-02T04:24:14.823Z,8.55
2017-05-02T04:24:55.334Z,8.55
2017-05-02T04:25:35.835Z,8.53
2017-05-02T04:26:16.357Z,8.53
2017-05-02T04:26:56.890Z,8.59
2017-05-02T04:27:37.415Z,8.52
2017-05-02T04:28:17.932Z,8.58
2017-05-02T04:28:58.441Z,8.53
2017-05-02T04:29:38.981Z,8.52
2017-05-02T04:30:19.484Z,8.56
2017-05-02T04:31:00.018Z,8.53
2017-05-02T04:31:40.536Z,8.58
2017-05-02T04:32:21.047Z,8.55
2017-05-02T04:33:01.558Z,8.62
2017-05-02T04:33:42.072Z,8.56
2017-05-02T04:34:22.583Z,8.58
2017-05-02T04:35:03.075Z,8.62
2017-05-02T04:35:43.606Z,8.52
2017-05-02T04:36:24.104Z,8.56
2017-05-02T04:37:04.621Z,8.44
2017-05-02T04:37:45.147Z,8.55
2017-05-02T04:38:25.657Z,8.48
2017-05-02T04:39:06.189Z,8.55
2017-05-02T04:39:46.709Z,8.47
2017-05-02T04:40:27.196Z,8.55
2017-05-02T04:41:07.712Z,8.62
2017-05-02T04:41:48.232Z,8.59
2017-05-02T04:42:28.731Z,8.62
2017-05-02T04:43:09.252Z,8.59
2017-05-02T04:43:49.794Z,8.63
2017-05-02T04:44:30.317Z,8.66
2017-05-02T04:45:10.841Z,8.65
2017-05-02T04:45:51.362Z,8.65
2017-05-02T04:46:31.867Z,8.71
2017-05-02T04:47:12.373Z,8.71
2017-05-02T04:47:52.914Z,8.61
2017-05-02T04:48:33.419Z,8.79
2017-05-02T04:49:13.936Z,8.76
2017-05-02T04:49:54.451Z,8.76
2017-05-02T04:50:34.985Z,8.77
2017-05-02T04:51:15.519Z,8.7
2017-05-02T04:51:56.064Z,8.71
2017-05-02T04:52:36.582Z,8.74
2017-05-02T04:53:17.143Z,8.73
2017-05-02T04:53:57.658Z,8.73
2017-05-02T04:54:38.182Z,8.73
2017-05-02T04:55:18.701Z,8.76
2017-05-02T04:55:59.246Z,8.73
2017-05-02T04:56:39.765Z,8.79
2017-05-02T04:57:20.281Z,8.68
2017-05-02T04:58:00.780Z,8.73
2017-05-02T04:58:41.312Z,8.71
2017-05-02T04:59:21.855Z,8.76
2017-05-02T05:00:02.391Z,8.77
2017-05-02T05:00:42.908Z,8.77
2017-05-02T05:01:23.429Z,8.76
2017-05-02T05:02:03.964Z,8.73
2017-05-02T05:02:44.494Z,8.74
2017-05-02T05:03:25.044Z,8.76
2017-05-02T05:04:05.681Z,8.8
2017-05-02T05:04:46.251Z,8.81
2017-05-02T05:05:26.776Z,8.79
2017-05-02T05:06:07.304Z,8.77
2017-05-02T05:06:47.821Z,8.79
2017-05-02T05:07:28.372Z,8.79
2017-05-02T05:08:08.889Z,8.8
2017-05-02T05:08:49.415Z,8.81
2017-05-02T05:09:29.938Z,8.87
2017-05-02T05:10:10.463Z,8.84
2017-05-02T05:10:50.991Z,8.79
2017-05-02T05:11:31.506Z,8.84
2017-05-02T05:12:12.013Z,8.79
2017-05-02T05:12:52.554Z,8.77
2017-05-02T05:13:33.082Z,8.79
2017-05-02T05:14:13.589Z,8.83
2017-05-02T05:14:54.121Z,8.79
2017-05-02T05:15:34.646Z,8.77
2017-05-02T05:16:15.164Z,8.76
2017-05-02T05:16:55.687Z,8.77
2017-05-02T05:17:36.202Z,8.83
2017-05-02T05:18:16.701Z,8.76
2017-05-02T05:18:57.216Z,8.84
2017-05-02T05:19:37.743Z,8.86
2017-05-02T05:20:18.249Z,8.84
2017-05-02T05:20:58.763Z,8.87
2017-05-02T05:21:39.266Z,8.87
2017-05-02T05:22:19.782Z,8.92
2017-05-02T05:23:00.314Z,8.86
2017-05-02T05:23:40.847Z,8.94
2017-05-02T05:24:21.360Z,8.92
2017-05-02T05:25:01.879Z,8.92
2017-05-02T05:25:42.423Z,8.95
2017-05-02T05:26:22.937Z,8.92
2017-05-02T05:27:03.460Z,8.91
2017-05-02T05:27:43.988Z,8.96
2017-05-02T05:28:24.515Z,8.89
2017-05-02T05:29:05.045Z,8.92
2017-05-02T05:29:45.566Z,8.91
2017-05-02T05:30:26.098Z,9.04
2017-05-02T05:31:06.612Z,8.96
2017-05-02T05:31:47.119Z,8.89
2017-05-02T05:32:27.648Z,8.99
2017-05-02T05:33:08.166Z,8.96
2017-05-02T05:33:48.688Z,8.95
2017-05-02T05:34:29.216Z,8.96
2017-05-02T05:35:09.790Z,9.04
2017-05-02T05:35:50.326Z,9.02
2017-05-02T05:36:30.858Z,9.04
2017-05-02T05:37:11.370Z,9.11
2017-05-02T05:37:51.941Z,9.04
2017-05-02T05:38:32.426Z,9.04
2017-05-02T05:39:12.946Z,9.05
2017-05-02T05:39:53.465Z,9.02
2017-05-02T05:40:33.966Z,8.99
2017-05-02T05:41:14.476Z,9.08
2017-05-02T05:41:55.003Z,8.99
2017-05-02T05:42:35.509Z,9.13
2017-05-02T05:43:16.033Z,9.15
2017-05-02T05:43:56.567Z,9.18
2017-05-02T05:44:37.110Z,9.15
2017-05-02T05:45:17.623Z,9.2
2017-05-02T05:45:58.153Z,9.26
2017-05-02T05:46:38.685Z,9.21
2017-05-02T05:47:19.157Z,9.23
2017-05-02T05:47:59.663Z,9.26
2017-05-02T05:48:40.190Z,9.17
2017-05-02T05:49:20.714Z,9.23
2017-05-02T05:50:01.238Z,9.23
2017-05-02T05:50:41.764Z,9.24
2017-05-02T05:51:22.282Z,9.2
2017-05-02T05:52:02.864Z,9.13
2017-05-02T05:52:43.418Z,9.13
2017-05-02T05:53:23.971Z,9.14
2017-05-02T05:54:04.686Z,9.13
2017-05-02T05:54:45.283Z,9.15
2017-05-02T05:55:25.840Z,9.15
2017-05-02T05:56:06.378Z,9.23
2017-05-02T05:56:46.927Z,9.2
2017-05-02T05:57:27.472Z,9.23
2017-05-02T05:58:07.982Z,9.21
2017-05-02T05:58:48.484Z,9.18
2017-05-02T05:59:28.998Z,9.23
2017-05-02T06:00:09.532Z,9.23
2017-05-02T06:00:50.036Z,9.26
2017-05-02T06:01:30.550Z,9.23
2017-05-02T06:02:11.064Z,9.21
2017-05-02T06:02:51.594Z,9.2
2017-05-02T06:03:32.121Z,9.24
2017-05-02T06:04:12.643Z,9.2
2017-05-02T06:04:53.171Z,9.23
2017-05-02T06:05:33.713Z,9.21
2017-05-02T06:06:14.262Z,9.33
2017-05-02T06:06:54.830Z,9.26
2017-05-02T06:07:35.355Z,9.29
2017-05-02T06:08:15.926Z,9.33
2017-05-02T06:08:56.408Z,9.21
2017-05-02T06:09:36.925Z,9.36
2017-05-02T06:10:17.467Z,9.2
2017-05-02T06:10:58.000Z,9.26
2017-05-02T06:11:38.524Z,9.21
2017-05-02T06:12:19.034Z,9.24
2017-05-02T06:12:59.560Z,9.21
2017-05-02T06:13:40.101Z,9.21
2017-05-02T06:14:20.644Z,9.23
2017-05-02T06:15:01.151Z,9.31
2017-05-02T06:15:41.676Z,9.24
2017-05-02T06:16:22.208Z,9.29
2017-05-02T06:17:02.750Z,9.28
2017-05-02T06:17:43.258Z,9.31
2017-05-02T06:18:23.776Z,9.31
2017-05-02T06:19:04.304Z,9.28
2017-05-02T06:19:44.826Z,9.29
2017-05-02T06:20:25.322Z,9.33
2017-05-02T06:21:05.856Z,9.36
2017-05-02T06:21:46.382Z,9.36
2017-05-02T06:22:26.917Z,9.32
2017-05-02T06:23:07.427Z,9.31
2017-05-02T06:23:47.946Z,9.29
2017-05-02T06:24:28.467Z,9.35
2017-05-02T06:25:08.982Z,9.29
2017-05-02T06:25:49.503Z,9.35
2017-05-02T06:26:30.009Z,9.31
2017-05-02T06:27:10.529Z,9.28
2017-05-02T06:27:51.042Z,9.39
2017-05-02T06:28:31.564Z,9.35
2017-05-02T06:29:12.092Z,9.42
2017-05-02T06:29:52.623Z,9.39
2017-05-02T06:30:33.124Z,9.4
2017-05-02T06:31:13.646Z,9.36
2017-05-02T06:31:54.170Z,9.43
2017-05-02T06:32:34.710Z,9.4
2017-05-02T06:33:15.239Z,9.46
2017-05-02T06:33:55.773Z,9.42
2017-05-02T06:34:36.272Z,9.47
2017-05-02T06:35:16.801Z,9.43
2017-05-02T06:35:57.320Z,9.42
2017-05-02T06:36:37.839Z,9.42
2017-05-02T06:37:18.348Z,9.36
2017-05-02T06:37:58.885Z,9.38
2017-05-02T06:38:39.385Z,9.46
2017-05-02T06:39:19.916Z,9.42
2017-05-02T06:40:00.436Z,9.38
2017-05-02T06:40:40.952Z,9.36
2017-05-02T06:41:21.473Z,9.4
2017-05-02T06:42:01.998Z,9.39
2017-05-02T06:42:42.504Z,9.29
2017-05-02T06:43:23.017Z,9.4
2017-05-02T06:44:03.531Z,9.28
2017-05-02T06:44:44.047Z,9.32
2017-05-02T06:45:24.582Z,9.26
2017-05-02T06:46:05.124Z,9.33
2017-05-02T06:46:45.655Z,9.39
2017-05-02T06:47:26.679Z,9.31
2017-05-02T06:48:07.257Z,9.33
2017-05-02T06:48:47.776Z,9.32
2017-05-02T06:49:28.329Z,9.29
2017-05-02T06:50:08.865Z,9.33
2017-05-02T06:50:49.402Z,9.29
2017-05-02T06:51:29.921Z,9.32
2017-05-02T06:52:10.447Z,9.32
2017-05-02T06:52:50.961Z,9.26
2017-05-02T06:53:31.481Z,9.29
2017-05-02T06:54:12.004Z,9.35
2017-05-02T06:54:52.502Z,9.31
2017-05-02T06:55:33.034Z,9.29
2017-05-02T06:56:13.554Z,9.31
2017-05-02T06:56:54.086Z,9.35
2017-05-02T06:57:34.608Z,9.42
2017-05-02T06:58:15.124Z,9.31
2017-05-02T06:58:55.640Z,9.36
2017-05-02T06:59:36.166Z,9.29
2017-05-02T07:00:16.699Z,9.31
2017-05-02T07:00:57.209Z,9.35
2017-05-02T07:01:37.740Z,9.32
2017-05-02T07:02:18.293Z,9.39
2017-05-02T07:02:58.811Z,9.31
2017-05-02T07:03:39.325Z,9.4
2017-05-02T07:04:19.832Z,9.32
2017-05-02T07:05:00.350Z,9.36
2017-05-02T07:05:40.859Z,9.4
2017-05-02T07:06:21.393Z,9.42
2017-05-02T07:07:01.913Z,9.33
2017-05-02T07:07:42.439Z,9.4
2017-05-02T07:08:22.959Z,9.43
2017-05-02T07:09:03.501Z,9.38
2017-05-02T07:09:44.006Z,9.4
2017-05-02T07:10:24.538Z,9.46
2017-05-02T07:11:05.071Z,9.38
2017-05-02T07:11:45.592Z,9.4
2017-05-02T07:12:26.101Z,9.39
2017-05-02T07:13:06.619Z,9.39
2017-05-02T07:13:47.145Z,9.36
2017-05-02T07:14:27.672Z,9.32
2017-05-02T07:15:08.199Z,9.28
2017-05-02T07:15:48.711Z,9.29
2017-05-02T07:16:29.215Z,9.24
2017-05-02T07:17:09.739Z,9.28
2017-05-02T07:17:50.313Z,9.32
2017-05-02T07:18:30.864Z,9.32
2017-05-02T07:19:11.366Z,9.36
2017-05-02T07:19:51.879Z,9.33
2017-05-02T07:20:32.403Z,9.42
2017-05-02T07:21:12.912Z,9.4
2017-05-02T07:21:53.432Z,9.42
2017-05-02T07:22:33.954Z,9.42
2017-05-02T07:23:14.475Z,9.38
2017-05-02T07:23:54.983Z,9.39
2017-05-02T07:24:35.502Z,9.35
2017-05-02T07:25:16.022Z,9.38
2017-05-02T07:25:56.543Z,9.43
2017-05-02T07:26:37.064Z,9.4
2017-05-02T07:27:17.590Z,9.5
2017-05-02T07:27:58.123Z,9.47
2017-05-02T07:28:38.636Z,9.48
2017-05-02T07:29:19.133Z,9.46
2017-05-02T07:29:59.633Z,9.46
2017-05-02T07:30:40.146Z,9.48
2017-05-02T07:31:20.680Z,9.48
2017-05-02T07:32:01.222Z,9.4
2017-05-02T07:32:41.741Z,9.47
2017-05-02T07:33:22.284Z,9.43
2017-05-02T07:34:02.821Z,9.47
2017-05-02T07:34:43.354Z,9.47
2017-05-02T07:35:23.885Z,9.47
2017-05-02T07:36:04.386Z,9.48
2017-05-02T07:36:44.894Z,9.5
2017-05-02T07:37:25.438Z,9.54
2017-05-02T07:38:05.964Z,9.47
2017-05-02T07:38:46.468Z,9.51
2017-05-02T07:39:26.988Z,9.53
2017-05-02T07:40:07.505Z,9.51
2017-05-02T07:40:48.042Z,9.56
2017-05-02T07:41:28.556Z,9.56
2017-05-02T07:42:09.073Z,9.5
2017-05-02T07:42:49.585Z,9.56
2017-05-02T07:43:30.106Z,9.54
2017-05-02T07:44:10.627Z,9.53
2017-05-02T07:44:51.145Z,9.58
2017-05-02T07:45:31.674Z,9.51
2017-05-02T07:46:12.187Z,9.6
2017-05-02T07:46:52.709Z,9.64
2017-05-02T07:47:33.247Z,9.64
2017-05-02T07:48:13.762Z,9.6
2017-05-02T07:48:54.297Z,9.61
2017-05-02T07:49:34.824Z,9.61
2017-05-02T07:50:15.359Z,9.57
2017-05-02T07:50:55.880Z,9.54
2017-05-02T07:51:36.391Z,9.53
2017-05-02T07:52:16.936Z,9.51
2017-05-02T07:52:57.460Z,9.46
2017-05-02T07:53:37.980Z,9.5
2017-05-02T07:54:18.503Z,9.57
2017-05-02T07:54:59.011Z,9.48
2017-05-02T07:55:39.522Z,9.46
2017-05-02T07:56:20.044Z,9.48
2017-05-02T07:57:00.583Z,9.51
2017-05-02T07:57:41.125Z,9.51
2017-05-02T07:58:21.634Z,9.48
2017-05-02T07:59:02.167Z,9.51
2017-05-02T07:59:42.679Z,9.53
2017-05-02T08:00:23.208Z,9.53
2017-05-02T08:01:03.718Z,9.54
2017-05-02T08:01:44.242Z,9.58
2017-05-02T08:02:24.790Z,9.54
2017-05-02T08:03:05.295Z,9.51
2017-05-02T08:03:45.808Z,9.61
2017-05-02T08:04:26.309Z,9.6
2017-05-02T08:05:06.833Z,9.47
2017-05-02T08:05:47.369Z,9.5
2017-05-02T08:06:27.886Z,9.51
2017-05-02T08:07:08.408Z,9.51
2017-05-02T08:07:48.923Z,9.53
2017-05-02T08:08:29.433Z,9.48
2017-05-02T08:09:09.963Z,9.47
2017-05-02T08:09:50.485Z,9.6
2017-05-02T08:10:31.005Z,9.57
2017-05-02T08:11:11.537Z,9.54
2017-05-02T08:11:52.029Z,9.57
2017-05-02T08:12:32.546Z,9.68
2017-05-02T08:13:13.074Z,9.56
2017-05-02T08:13:53.621Z,9.69
2017-05-02T08:14:34.118Z,9.66
2017-05-02T08:15:14.644Z,9.66
2017-05-02T08:15:55.171Z,9.61
2017-05-02T08:16:35.697Z,9.58
2017-05-02T08:17:16.217Z,9.58
2017-05-02T08:17:56.721Z,9.64
2017-05-02T08:18:37.245Z,9.6
2017-05-02T08:19:17.755Z,9.57
2017-05-02T08:19:58.291Z,9.58
2017-05-02T08:20:38.809Z,9.56
2017-05-02T08:21:19.319Z,9.56
2017-05-02T08:21:59.818Z,9.54
2017-05-02T08:22:40.339Z,9.5
2017-05-02T08:23:20.867Z,9.5
2017-05-02T08:24:01.369Z,9.56
2017-05-02T08:24:41.901Z,9.54
2017-05-02T08:25:22.436Z,9.53
2017-05-02T08:26:02.940Z,9.53
2017-05-02T08:26:43.444Z,9.54
2017-05-02T08:27:24.916Z,9.51
2017-05-02T08:28:05.430Z,9.57
2017-05-02T08:28:45.959Z,9.56
2017-05-02T08:29:26.468Z,9.58
2017-05-02T08:30:06.996Z,9.61
2017-05-02T08:30:47.510Z,9.66
2017-05-02T08:31:28.006Z,9.58
2017-05-02T08:32:08.529Z,9.66
2017-05-02T08:32:49.069Z,9.65
2017-05-02T08:33:29.587Z,9.68
2017-05-02T08:34:10.099Z,9.66
2017-05-02T08:34:50.632Z,9.58
2017-05-02T08:35:31.163Z,9.66
2017-05-02T08:36:11.669Z,9.61
2017-05-02T08:36:52.183Z,9.68
2017-05-02T08:37:32.710Z,9.66
2017-05-02T08:38:13.231Z,9.6
2017-05-02T08:38:53.745Z,9.65
2017-05-02T08:39:34.264Z,9.54
2017-05-02T08:40:14.835Z,9.6
2017-05-02T08:40:55.375Z,9.64
2017-05-02T08:41:35.901Z,9.64
2017-05-02T08:42:16.402Z,9.57
2017-05-02T08:42:56.933Z,9.58
2017-05-02T08:43:37.475Z,9.61
2017-05-02T08:44:17.996Z,9.66
2017-05-02T08:44:58.537Z,9.65
2017-05-02T08:45:39.049Z,9.65
2017-05-02T08:46:19.554Z,9.6
2017-05-02T08:47:00.079Z,9.61
2017-05-02T08:47:40.606Z,9.57
2017-05-02T08:48:21.139Z,9.69
2017-05-02T08:49:01.669Z,9.69
2017-05-02T08:49:42.195Z,9.68
2017-05-02T08:50:22.722Z,9.65
2017-05-02T08:51:03.252Z,9.61
2017-05-02T08:51:43.768Z,9.65
2017-05-02T08:52:24.295Z,9.75
2017-05-02T08:53:04.809Z,9.83
2017-05-02T08:53:45.335Z,9.75
2017-05-02T08:54:25.895Z,9.78
2017-05-02T08:55:06.430Z,9.72
2017-05-02T08:55:46.944Z,9.75
2017-05-02T08:56:27.462Z,9.87
2017-05-02T08:57:07.988Z,9.79
2017-05-02T08:57:48.516Z,9.86
2017-05-02T08:58:29.014Z,9.79
2017-05-02T08:59:09.531Z,9.86
2017-05-02T08:59:50.051Z,9.78
2017-05-02T09:00:30.562Z,9.83
2017-05-02T09:01:11.084Z,9.81